Time,TemperatureF,DewpointF,PressureIn,WindDirection,WindDirectionDegrees,WindSpeedMPH,WindSpeedGustMPH,Humidity,HourlyPrecipIn,Conditions,Clouds,dailyrainin,SoftwareType,DateUTC
2013-07-07 00:01:00,71.0,69.2,30.00,SSW,202,1.0,3.0,94,0.00,,,0.00,Wunderground v.1.15,2013-07-07 04:01:00,
2013-07-07 00:06:00,71.1,69.3,30.00,SSW,196,2.0,2.0,94,0.00,,,0.00,Wunderground v.1.15,2013-07-07 04:06:00,
2013-07-07 00:11:00,71.0,69.2,30.00,SSW,203,2.0,3.0,94,0.00,,,0.00,Wunderground v.1.15,2013-07-07 04:11:00,
2013-07-07 00:21:00,70.8,69.0,30.00,SSW,204,3.0,3.0,94,0.00,,,0.00,Wunderground v.1.15,2013-07-07 04:21:00,
2013-07-07 00:31:00,70.8,69.0,29.98,SSW,202,2.0,2.0,94,0.00,,,0.00,Wunderground v.1.15,2013-07-07 04:31:00,
2013-07-07 00:41:00,70.6,68.8,29.99,SSW,198,3.0,3.0,94,0.00,,,0.00,Wunderground v.1.15,2013-07-07 04:41:00,
2013-07-07 00:51:00,70.5,68.7,30.00,SSW,196,3.0,3.0,94,0.00,,,0.00,Wunderground v.1.15,2013-07-07 04:51:00,
2013-07-07 01:00:00,70.8,69.0,29.99,South,186,3.0,3.0,94,0.00,,,0.00,Wunderground v.1.15,2013-07-07 05:00:00,
2013-07-07 01:10:00,70.7,68.9,29.99,SW,234,3.0,7.0,94,0.00,,,0.00,Wunderground v.1.15,2013-07-07 05:10:00,
2013-07-07 01:15:00,70.7,68.9,29.99,SSW,208,3.0,7.0,94,0.00,,,0.00,Wunderground v.1.15,2013-07-07 05:15:00,
2013-07-07 01:25:00,70.7,68.9,29.99,SSW,197,3.0,3.0,94,0.00,,,0.00,Wunderground v.1.15,2013-07-07 05:25:00,
2013-07-07 01:30:00,70.8,69.0,29.98,SSW,207,3.0,3.0,94,0.00,,,0.00,Wunderground v.1.15,2013-07-07 05:30:00,
2013-07-07 01:40:00,70.8,69.0,29.99,SW,219,3.0,4.0,94,0.00,,,0.00,Wunderground v.1.15,2013-07-07 05:40:00,
2013-07-07 01:45:00,70.8,69.0,29.99,SSW,209,4.0,4.0,94,0.00,,,0.00,Wunderground v.1.15,2013-07-07 05:45:00,
2013-07-07 01:55:00,70.8,69.0,29.99,SSW,201,4.0,6.0,94,0.00,,,0.00,Wunderground v.1.15,2013-07-07 05:55:00,
2013-07-07 02:00:00,70.7,68.9,29.99,SW,219,5.0,5.0,94,0.00,,,0.00,Wunderground v.1.15,2013-07-07 06:00:00,
2013-07-07 02:10:00,70.7,68.9,29.99,SW,236,4.0,5.0,94,0.00,,,0.00,Wunderground v.1.15,2013-07-07 06:10:00,
2013-07-07 02:20:00,70.8,69.0,29.99,SW,227,4.0,5.0,94,0.00,,,0.00,Wunderground v.1.15,2013-07-07 06:20:00,
2013-07-07 02:30:00,70.7,68.9,29.99,WSW,240,5.0,5.0,94,0.00,,,0.00,Wunderground v.1.15,2013-07-07 06:30:00,
2013-07-07 02:35:00,70.7,68.9,29.99,SW,224,5.0,5.0,94,0.00,,,0.00,Wunderground v.1.15,2013-07-07 06:35:00,
2013-07-07 02:45:00,70.7,68.9,29.99,SSW,200,5.0,8.0,94,0.00,,,0.00,Wunderground v.1.15,2013-07-07 06:45:00,
2013-07-07 02:55:00,70.7,68.9,29.99,SSW,209,6.0,7.0,94,0.00,,,0.00,Wunderground v.1.15,2013-07-07 06:55:00,
2013-07-07 03:00:00,70.6,68.8,29.98,SW,218,6.0,6.0,94,0.00,,,0.00,Wunderground v.1.15,2013-07-07 07:00:00,
2013-07-07 03:10:00,70.5,68.7,29.98,SW,219,5.0,5.0,94,0.00,,,0.00,Wunderground v.1.15,2013-07-07 07:10:00,
2013-07-07 03:20:00,70.5,68.7,29.98,SW,217,5.0,5.0,94,0.00,,,0.00,Wunderground v.1.15,2013-07-07 07:20:00,
2013-07-07 03:25:00,70.5,68.7,29.98,WSW,243,5.0,6.0,94,0.00,,,0.00,Wunderground v.1.15,2013-07-07 07:25:00,
2013-07-07 03:35:00,70.3,68.5,29.98,WSW,239,6.0,7.0,94,0.00,,,0.00,Wunderground v.1.15,2013-07-07 07:35:00,
2013-07-07 03:45:00,70.3,68.2,29.98,SW,232,5.0,6.0,93,0.00,,,0.00,Wunderground v.1.15,2013-07-07 07:45:00,
2013-07-07 03:50:00,70.2,68.1,29.98,WSW,248,5.0,6.0,93,0.00,,,0.00,Wunderground v.1.15,2013-07-07 07:50:00,
2013-07-07 04:00:00,70.1,68.0,29.98,SW,221,5.0,6.0,93,0.00,,,0.00,Wunderground v.1.15,2013-07-07 08:00:00,
2013-07-07 04:10:00,69.9,67.8,29.98,WSW,250,5.0,5.0,93,0.00,,,0.00,Wunderground v.1.15,2013-07-07 08:10:00,
2013-07-07 04:20:00,69.8,67.7,29.98,WSW,248,5.0,5.0,93,0.00,,,0.00,Wunderground v.1.15,2013-07-07 08:20:00,
2013-07-07 04:25:00,69.7,67.6,29.98,WSW,240,5.0,5.0,93,0.00,,,0.00,Wunderground v.1.15,2013-07-07 08:25:00,
2013-07-07 04:35:00,69.5,67.4,29.97,WSW,258,4.0,5.0,93,0.00,,,0.00,Wunderground v.1.15,2013-07-07 08:35:00,
2013-07-07 04:45:00,69.4,67.3,29.97,WSW,243,5.0,5.0,93,0.00,,,0.00,Wunderground v.1.15,2013-07-07 08:45:00,
2013-07-07 04:50:00,69.3,67.2,29.97,WSW,251,5.0,5.0,93,0.00,,,0.00,Wunderground v.1.15,2013-07-07 08:50:00,
2013-07-07 05:00:00,69.3,67.2,29.97,WSW,248,5.0,5.0,93,0.00,,,0.00,Wunderground v.1.15,2013-07-07 09:00:00,
2013-07-07 05:10:00,69.2,67.1,29.98,SW,214,5.0,9.0,93,0.00,,,0.00,Wunderground v.1.15,2013-07-07 09:10:00,
2013-07-07 05:20:00,69.0,66.9,29.98,SW,217,5.0,5.0,93,0.00,,,0.00,Wunderground v.1.15,2013-07-07 09:20:00,
2013-07-07 05:30:00,68.8,66.7,29.98,SW,223,5.0,6.0,93,0.00,,,0.00,Wunderground v.1.15,2013-07-07 09:30:00,
2013-07-07 05:35:00,68.8,66.7,29.98,SW,230,4.0,6.0,93,0.00,,,0.00,Wunderground v.1.15,2013-07-07 09:35:00,
2013-07-07 05:40:00,68.6,66.5,29.98,WSW,240,3.0,3.0,93,0.00,,,0.00,Wunderground v.1.15,2013-07-07 09:40:00,
2013-07-07 05:50:00,68.4,66.3,29.98,SW,217,3.0,4.0,93,0.00,,,0.00,Wunderground v.1.15,2013-07-07 09:50:00,
2013-07-07 05:55:00,68.3,66.2,29.98,SSW,211,3.0,4.0,93,0.00,,,0.00,Wunderground v.1.15,2013-07-07 09:55:00,
2013-07-07 06:00:00,68.2,66.1,29.98,SSW,207,3.0,4.0,93,0.00,,,0.00,Wunderground v.1.15,2013-07-07 10:00:00,
2013-07-07 06:10:00,68.2,66.1,29.99,SSW,197,4.0,4.0,93,0.00,,,0.00,Wunderground v.1.15,2013-07-07 10:10:00,
2013-07-07 06:15:00,68.2,66.1,29.99,SSW,195,4.0,4.0,93,0.00,,,0.00,Wunderground v.1.15,2013-07-07 10:15:00,
2013-07-07 06:25:00,68.1,66.0,29.99,SSW,203,4.0,6.0,93,0.00,,,0.00,Wunderground v.1.15,2013-07-07 10:25:00,
2013-07-07 06:35:00,68.0,65.9,29.99,SSW,199,3.0,4.0,93,0.00,,,0.00,Wunderground v.1.15,2013-07-07 10:35:00,
2013-07-07 06:45:00,67.9,65.8,29.99,SSW,210,3.0,5.0,93,0.00,,,0.00,Wunderground v.1.15,2013-07-07 10:45:00,
2013-07-07 06:50:00,67.9,65.8,29.99,SSW,209,4.0,4.0,93,0.00,,,0.00,Wunderground v.1.15,2013-07-07 10:50:00,
2013-07-07 07:00:00,67.9,65.8,29.99,SW,220,5.0,5.0,93,0.00,,,0.00,Wunderground v.1.15,2013-07-07 11:00:00,
2013-07-07 07:10:00,67.9,65.8,30.00,SSW,210,5.0,5.0,93,0.00,,,0.00,Wunderground v.1.15,2013-07-07 11:10:00,
2013-07-07 07:20:00,68.1,66.0,30.00,SW,217,5.0,5.0,93,0.00,,,0.00,Wunderground v.1.15,2013-07-07 11:20:00,
2013-07-07 07:25:00,68.2,66.1,30.00,WSW,238,5.0,5.0,93,0.00,,,0.00,Wunderground v.1.15,2013-07-07 11:25:00,
2013-07-07 07:35:00,68.2,66.1,30.00,SW,224,5.0,8.0,93,0.00,,,0.00,Wunderground v.1.15,2013-07-07 11:35:00,
2013-07-07 07:45:00,68.2,66.1,30.00,South,190,5.0,8.0,93,0.00,,,0.00,Wunderground v.1.15,2013-07-07 11:45:00,
2013-07-07 07:50:00,68.3,66.2,30.00,SW,220,5.0,7.0,93,0.00,,,0.00,Wunderground v.1.15,2013-07-07 11:50:00,
2013-07-07 08:00:00,68.8,66.7,30.00,SW,224,6.0,6.0,93,0.00,,,0.00,Wunderground v.1.15,2013-07-07 12:00:00,
2013-07-07 08:10:00,69.3,66.9,30.01,SW,219,6.0,6.0,92,0.00,,,0.00,Wunderground v.1.15,2013-07-07 12:10:00,
2013-07-07 08:20:00,70.0,67.6,30.01,WSW,245,6.0,6.0,92,0.00,,,0.00,Wunderground v.1.15,2013-07-07 12:20:00,
2013-07-07 08:25:00,70.2,67.4,30.01,SW,232,5.0,8.0,91,0.00,,,0.00,Wunderground v.1.15,2013-07-07 12:25:00,
2013-07-07 08:35:00,70.7,67.6,30.01,SW,223,7.0,7.0,90,0.00,,,0.00,Wunderground v.1.15,2013-07-07 12:35:00,
2013-07-07 08:40:00,71.2,68.1,30.01,WSW,242,6.0,6.0,90,0.00,,,0.00,Wunderground v.1.15,2013-07-07 12:40:00,
2013-07-07 08:50:00,71.3,67.9,30.01,SW,234,7.0,7.0,89,0.00,,,0.00,Wunderground v.1.15,2013-07-07 12:50:00,
2013-07-07 09:00:00,71.5,68.1,30.00,WSW,248,6.0,7.0,89,0.00,,,0.01,Wunderground v.1.15,2013-07-07 13:00:00,
2013-07-07 09:10:00,71.8,68.4,30.01,WSW,240,7.0,7.0,89,0.00,,,0.01,Wunderground v.1.15,2013-07-07 13:10:00,
2013-07-07 09:15:00,72.2,68.4,30.00,WSW,256,6.0,7.0,88,0.00,,,0.01,Wunderground v.1.15,2013-07-07 13:15:00,
2013-07-07 09:25:00,72.3,68.5,30.00,WSW,239,7.0,9.0,88,0.00,,,0.01,Wunderground v.1.15,2013-07-07 13:25:00,
2013-07-07 09:30:00,72.0,67.9,30.01,WSW,247,8.0,8.0,87,0.00,,,0.01,Wunderground v.1.15,2013-07-07 13:30:00,
2013-07-07 09:40:00,72.4,68.6,30.01,WSW,240,8.0,8.0,88,0.00,,,0.01,Wunderground v.1.15,2013-07-07 13:40:00,
2013-07-07 09:45:00,72.3,68.2,30.01,WSW,248,7.0,8.0,87,0.00,,,0.01,Wunderground v.1.15,2013-07-07 13:45:00,
2013-07-07 09:55:00,71.8,67.7,30.02,WSW,258,8.0,10.0,87,0.00,,,0.01,Wunderground v.1.15,2013-07-07 13:55:00,
2013-07-07 10:00:00,71.9,68.2,30.01,West,262,8.0,8.0,88,0.00,,,0.01,Wunderground v.1.15,2013-07-07 14:00:00,
2013-07-07 10:10:00,72.5,68.4,30.01,SW,236,7.0,7.0,87,0.00,,,0.01,Wunderground v.1.15,2013-07-07 14:10:00,
2013-07-07 10:20:00,72.5,68.1,30.01,WSW,256,9.0,9.0,86,0.00,,,0.01,Wunderground v.1.15,2013-07-07 14:20:00,
2013-07-07 10:30:00,72.3,67.5,30.01,WSW,255,9.0,9.0,85,0.00,,,0.01,Wunderground v.1.15,2013-07-07 14:30:00,
2013-07-07 10:40:00,73.1,68.7,30.01,SW,223,7.0,7.0,86,0.00,,,0.01,Wunderground v.1.15,2013-07-07 14:40:00,
2013-07-07 10:45:00,73.5,69.1,30.01,West,259,6.0,7.0,86,0.00,,,0.01,Wunderground v.1.15,2013-07-07 14:45:00,
2013-07-07 10:55:00,74.0,69.2,30.01,SW,217,6.0,6.0,85,0.00,,,0.01,Wunderground v.1.15,2013-07-07 14:55:00,
2013-07-07 11:00:00,74.1,69.3,30.01,SW,232,5.0,6.0,85,0.00,,,0.01,Wunderground v.1.15,2013-07-07 15:00:00,
2013-07-07 11:05:00,73.9,68.4,30.01,WNW,282,6.0,7.0,83,0.00,,,0.01,Wunderground v.1.15,2013-07-07 15:05:00,
2013-07-07 11:15:00,73.7,68.6,30.01,SW,230,7.0,7.0,84,0.00,,,0.01,Wunderground v.1.15,2013-07-07 15:15:00,
2013-07-07 11:20:00,73.6,68.1,30.01,WSW,248,7.0,7.0,83,0.00,,,0.01,Wunderground v.1.15,2013-07-07 15:20:00,
2013-07-07 11:30:00,74.6,69.1,30.01,SW,227,6.0,7.0,83,0.00,,,0.01,Wunderground v.1.15,2013-07-07 15:30:00,
2013-07-07 11:40:00,74.5,68.6,30.01,WSW,240,7.0,7.0,82,0.00,,,0.01,Wunderground v.1.15,2013-07-07 15:40:00,
2013-07-07 11:50:00,74.3,68.1,30.01,SW,228,6.0,6.0,81,0.00,,,0.01,Wunderground v.1.15,2013-07-07 15:50:00,
2013-07-07 12:00:00,75.4,68.4,30.01,WSW,251,6.0,7.0,79,0.00,,,0.01,Wunderground v.1.15,2013-07-07 16:00:00,
2013-07-07 12:10:00,75.2,69.0,30.01,WSW,240,6.0,6.0,81,0.00,,,0.01,Wunderground v.1.15,2013-07-07 16:10:00,
2013-07-07 12:20:00,75.1,68.5,30.01,WSW,243,5.0,6.0,80,0.00,,,0.01,Wunderground v.1.15,2013-07-07 16:20:00,
2013-07-07 12:25:00,75.3,69.4,30.01,SW,225,5.0,8.0,82,0.00,,,0.01,Wunderground v.1.15,2013-07-07 16:25:00,
2013-07-07 12:35:00,75.4,69.5,30.01,WSW,248,5.0,7.0,82,0.00,,,0.01,Wunderground v.1.15,2013-07-07 16:35:00,
2013-07-07 12:40:00,75.2,69.0,30.01,WSW,253,5.0,5.0,81,0.00,,,0.01,Wunderground v.1.15,2013-07-07 16:40:00,
2013-07-07 12:50:00,75.5,69.3,30.01,SW,220,6.0,6.0,81,0.00,,,0.01,Wunderground v.1.15,2013-07-07 16:50:00,
2013-07-07 13:00:00,76.0,69.7,30.00,West,259,5.0,5.0,81,0.00,,,0.01,Wunderground v.1.15,2013-07-07 17:00:00,
2013-07-07 13:10:00,76.4,70.1,30.00,West,263,6.0,6.0,81,0.00,,,0.01,Wunderground v.1.15,2013-07-07 17:10:00,
2013-07-07 13:20:00,77.0,70.7,30.00,WSW,250,5.0,7.0,81,0.00,,,0.01,Wunderground v.1.15,2013-07-07 17:20:00,
2013-07-07 13:25:00,77.2,69.8,30.00,SW,235,4.0,7.0,78,0.00,,,0.01,Wunderground v.1.15,2013-07-07 17:25:00,
2013-07-07 13:35:00,77.1,68.9,30.00,WSW,248,5.0,5.0,76,0.00,,,0.01,Wunderground v.1.15,2013-07-07 17:35:00,
2013-07-07 13:45:00,76.6,68.5,30.00,West,260,5.0,7.0,76,0.00,,,0.01,Wunderground v.1.15,2013-07-07 17:45:00,
2013-07-07 13:55:00,76.3,68.9,29.99,WSW,257,5.0,8.0,78,0.00,,,0.01,Wunderground v.1.15,2013-07-07 17:55:00,
2013-07-07 14:00:00,76.1,69.1,30.00,SW,236,5.0,5.0,79,0.00,,,0.01,Wunderground v.1.15,2013-07-07 18:00:00,
2013-07-07 14:10:00,76.6,68.8,29.99,WSW,242,4.0,6.0,77,0.00,,,0.01,Wunderground v.1.15,2013-07-07 18:10:00,
2013-07-07 14:15:00,77.1,69.3,29.99,WSW,240,5.0,6.0,77,0.00,,,0.01,Wunderground v.1.15,2013-07-07 18:15:00,
2013-07-07 14:25:00,77.8,69.2,29.98,West,277,4.0,5.0,75,0.00,,,0.01,Wunderground v.1.15,2013-07-07 18:25:00,
2013-07-07 14:35:00,77.4,68.9,29.98,WSW,238,5.0,6.0,75,0.00,,,0.01,Wunderground v.1.15,2013-07-07 18:35:00,
2013-07-07 14:45:00,77.4,70.4,29.98,WSW,240,5.0,7.0,79,0.00,,,0.01,Wunderground v.1.15,2013-07-07 18:45:00,
2013-07-07 14:55:00,74.3,68.1,29.99,SW,233,8.0,9.0,81,0.00,,,0.01,Wunderground v.1.15,2013-07-07 18:55:00,
2013-07-07 15:00:00,73.1,68.7,29.98,WSW,256,7.0,9.0,86,0.00,,,0.02,Wunderground v.1.15,2013-07-07 19:00:00,
2013-07-07 15:05:00,72.8,68.7,29.98,West,274,6.0,9.0,87,0.00,,,0.02,Wunderground v.1.15,2013-07-07 19:05:00,
2013-07-07 15:15:00,74.3,70.2,29.98,West,269,5.0,6.0,87,0.00,,,0.02,Wunderground v.1.15,2013-07-07 19:15:00,
2013-07-07 15:20:00,75.3,71.2,29.98,WSW,239,5.0,7.0,87,0.00,,,0.02,Wunderground v.1.15,2013-07-07 19:20:00,
2013-07-07 15:30:00,76.0,70.5,29.98,West,264,9.0,9.0,83,0.00,,,0.02,Wunderground v.1.15,2013-07-07 19:30:00,
2013-07-07 15:35:00,76.1,70.2,29.98,WSW,246,9.0,9.0,82,0.00,,,0.02,Wunderground v.1.15,2013-07-07 19:35:00,
2013-07-07 15:45:00,75.5,69.6,29.98,SW,222,6.0,7.0,82,0.00,,,0.02,Wunderground v.1.15,2013-07-07 19:45:00,
2013-07-07 15:55:00,74.5,68.3,29.97,WSW,251,7.0,7.0,81,0.00,,,0.02,Wunderground v.1.15,2013-07-07 19:55:00,
2013-07-07 16:00:00,74.1,68.3,29.97,WSW,242,6.0,9.0,82,0.00,,,0.02,Wunderground v.1.15,2013-07-07 20:00:00,
2013-07-07 16:10:00,73.3,68.2,29.97,SW,227,7.0,7.0,84,0.00,,,0.02,Wunderground v.1.15,2013-07-07 20:10:00,
2013-07-07 16:15:00,73.0,67.9,29.97,SSW,192,5.0,7.0,84,0.00,,,0.02,Wunderground v.1.15,2013-07-07 20:15:00,
2013-07-07 16:25:00,72.1,67.7,29.96,WSW,246,5.0,5.0,86,0.00,,,0.02,Wunderground v.1.15,2013-07-07 20:25:00,
2013-07-07 16:30:00,72.1,68.0,29.96,SW,236,4.0,6.0,87,0.00,,,0.02,Wunderground v.1.15,2013-07-07 20:30:00,
2013-07-07 16:40:00,72.7,68.3,29.96,SW,215,4.0,4.0,86,0.00,,,0.02,Wunderground v.1.15,2013-07-07 20:40:00,
2013-07-07 16:50:00,73.7,68.9,29.96,SW,230,3.0,4.0,85,0.00,,,0.02,Wunderground v.1.15,2013-07-07 20:50:00,
2013-07-07 16:55:00,73.9,69.1,29.96,SW,224,4.0,4.0,85,0.00,,,0.02,Wunderground v.1.15,2013-07-07 20:55:00,
2013-07-07 17:00:00,73.9,68.8,29.96,SW,223,4.0,4.0,84,0.00,,,0.02,Wunderground v.1.15,2013-07-07 21:00:00,
2013-07-07 17:10:00,74.0,68.9,29.95,SW,217,3.0,5.0,84,0.00,,,0.02,Wunderground v.1.15,2013-07-07 21:10:00,
2013-07-07 17:20:00,74.0,68.9,29.95,South,181,4.0,8.0,84,0.00,,,0.02,Wunderground v.1.15,2013-07-07 21:20:00,
2013-07-07 17:25:00,73.8,68.7,29.95,SW,215,5.0,8.0,84,0.00,,,0.02,Wunderground v.1.15,2013-07-07 21:25:00,
2013-07-07 17:35:00,74.1,68.6,29.95,SSW,205,3.0,4.0,83,0.00,,,0.02,Wunderground v.1.15,2013-07-07 21:35:00,
2013-07-07 17:40:00,74.5,69.0,29.94,SW,219,3.0,5.0,83,0.00,,,0.02,Wunderground v.1.15,2013-07-07 21:40:00,
2013-07-07 17:50:00,75.2,69.7,29.94,SSW,203,4.0,5.0,83,0.00,,,0.02,Wunderground v.1.15,2013-07-07 21:50:00,
2013-07-07 18:00:00,75.8,69.9,29.94,WSW,237,5.0,5.0,82,0.00,,,0.02,Wunderground v.1.15,2013-07-07 22:00:00,
2013-07-07 18:10:00,76.5,70.9,29.94,SW,233,5.0,5.0,83,0.00,,,0.02,Wunderground v.1.15,2013-07-07 22:10:00,
2013-07-07 18:20:00,75.7,69.5,29.93,WSW,248,7.0,8.0,81,0.00,,,0.02,Wunderground v.1.15,2013-07-07 22:20:00,
2013-07-07 18:25:00,75.5,69.3,29.94,SW,224,8.0,8.0,81,0.00,,,0.02,Wunderground v.1.15,2013-07-07 22:25:00,
2013-07-07 18:35:00,74.9,68.7,29.94,West,279,8.0,8.0,81,0.00,,,0.02,Wunderground v.1.15,2013-07-07 22:35:00,
2013-07-07 18:40:00,74.6,68.4,29.94,West,264,7.0,7.0,81,0.00,,,0.02,Wunderground v.1.15,2013-07-07 22:40:00,
2013-07-07 18:50:00,74.6,68.7,29.95,WSW,247,5.0,7.0,82,0.00,,,0.02,Wunderground v.1.15,2013-07-07 22:50:00,
2013-07-07 19:00:00,74.8,68.6,29.95,West,271,7.0,7.0,81,0.00,,,0.02,Wunderground v.1.15,2013-07-07 23:00:00,
2013-07-07 19:10:00,74.2,67.3,29.95,WSW,240,8.0,9.0,79,0.00,,,0.02,Wunderground v.1.15,2013-07-07 23:10:00,
2013-07-07 19:15:00,74.0,66.7,29.95,WSW,256,8.0,9.0,78,0.00,,,0.02,Wunderground v.1.15,2013-07-07 23:15:00,
2013-07-07 19:25:00,73.8,66.9,29.95,WSW,249,8.0,10.0,79,0.00,,,0.02,Wunderground v.1.15,2013-07-07 23:25:00,
2013-07-07 19:35:00,73.7,66.8,29.96,WSW,254,8.0,10.0,79,0.00,,,0.02,Wunderground v.1.15,2013-07-07 23:35:00,
2013-07-07 19:40:00,73.7,66.4,29.95,SW,227,8.0,8.0,78,0.00,,,0.02,Wunderground v.1.15,2013-07-07 23:40:00,
2013-07-07 19:50:00,73.9,67.0,29.95,SW,230,5.0,5.0,79,0.00,,,0.02,Wunderground v.1.15,2013-07-07 23:50:00,
2013-07-07 20:00:00,73.3,66.8,29.95,SW,228,5.0,5.0,80,0.00,,,0.02,Wunderground v.1.15,2013-07-08 00:00:00,
2013-07-07 20:10:00,73.0,66.8,29.95,SW,225,5.0,6.0,81,0.00,,,0.02,Wunderground v.1.15,2013-07-08 00:10:00,
2013-07-07 20:20:00,72.8,66.6,29.96,WSW,243,5.0,5.0,81,0.00,,,0.02,Wunderground v.1.15,2013-07-08 00:20:00,
2013-07-07 20:30:00,72.6,66.8,29.96,WSW,244,5.0,5.0,82,0.00,,,0.02,Wunderground v.1.15,2013-07-08 00:30:00,
2013-07-07 20:40:00,72.3,66.5,29.96,WSW,246,4.0,6.0,82,0.00,,,0.02,Wunderground v.1.15,2013-07-08 00:40:00,
2013-07-07 20:45:00,72.1,66.6,29.97,WSW,251,5.0,6.0,83,0.00,,,0.02,Wunderground v.1.15,2013-07-08 00:45:00,
2013-07-07 20:55:00,71.7,66.6,29.97,SW,224,4.0,5.0,84,0.00,,,0.02,Wunderground v.1.15,2013-07-08 00:55:00,
2013-07-07 21:00:00,71.3,66.2,29.97,SW,232,3.0,4.0,84,0.00,,,0.02,Wunderground v.1.15,2013-07-08 01:00:00,
2013-07-07 21:10:00,71.1,66.4,29.97,WSW,256,3.0,3.0,85,0.00,,,0.02,Wunderground v.1.15,2013-07-08 01:10:00,
2013-07-07 21:20:00,71.0,66.6,29.98,WSW,253,3.0,4.0,86,0.00,,,0.02,Wunderground v.1.15,2013-07-08 01:20:00,
2013-07-07 21:30:00,71.1,66.7,29.98,WSW,257,3.0,3.0,86,0.00,,,0.02,Wunderground v.1.15,2013-07-08 01:30:00,
2013-07-07 21:35:00,71.0,66.6,29.98,WSW,257,2.0,3.0,86,0.00,,,0.02,Wunderground v.1.15,2013-07-08 01:35:00,
2013-07-07 21:40:00,71.0,66.3,29.98,West,266,2.0,4.0,85,0.00,,,0.02,Wunderground v.1.15,2013-07-08 01:40:00,
2013-07-07 21:50:00,71.0,65.9,29.98,West,269,3.0,3.0,84,0.00,,,0.02,Wunderground v.1.15,2013-07-08 01:50:00,
2013-07-07 22:00:00,70.8,66.1,29.99,WSW,247,3.0,3.0,85,0.00,,,0.02,Wunderground v.1.15,2013-07-08 02:00:00,
2013-07-07 22:10:00,70.5,65.8,30.00,West,275,3.0,3.0,85,0.00,,,0.02,Wunderground v.1.15,2013-07-08 02:10:00,
2013-07-07 22:20:00,70.4,65.7,30.01,WNW,286,5.0,5.0,85,0.00,,,0.02,Wunderground v.1.15,2013-07-08 02:20:00,
2013-07-07 22:30:00,70.6,65.2,30.00,West,272,7.0,8.0,83,0.00,,,0.02,Wunderground v.1.15,2013-07-08 02:30:00,
2013-07-07 22:35:00,70.7,65.3,30.00,West,266,7.0,9.0,83,0.00,,,0.02,Wunderground v.1.15,2013-07-08 02:35:00,
2013-07-07 22:45:00,70.1,65.0,30.00,West,260,7.0,8.0,84,0.00,,,0.02,Wunderground v.1.15,2013-07-08 02:45:00,
2013-07-07 22:55:00,69.7,65.3,29.99,West,261,6.0,7.0,86,0.00,,,0.02,Wunderground v.1.15,2013-07-08 02:55:00,
2013-07-07 23:00:00,69.1,65.4,29.99,WSW,248,7.0,7.0,88,0.00,,,0.02,Wunderground v.1.15,2013-07-08 03:00:00,
2013-07-07 23:10:00,68.6,65.2,29.99,SW,227,6.0,6.0,89,0.00,,,0.02,Wunderground v.1.15,2013-07-08 03:10:00,
2013-07-07 23:20:00,68.4,65.4,30.00,WSW,251,5.0,5.0,90,0.00,,,0.02,Wunderground v.1.15,2013-07-08 03:20:00,
2013-07-07 23:25:00,68.4,65.4,30.00,WSW,246,6.0,6.0,90,0.00,,,0.02,Wunderground v.1.15,2013-07-08 03:25:00,
2013-07-07 23:35:00,68.3,65.3,30.00,WSW,242,6.0,6.0,90,0.00,,,0.02,Wunderground v.1.15,2013-07-08 03:35:00,
2013-07-07 23:45:00,68.3,65.3,30.00,WSW,237,5.0,5.0,90,0.00,,,0.02,Wunderground v.1.15,2013-07-08 03:45:00,
2013-07-07 23:50:00,68.3,65.3,30.00,SW,231,5.0,8.0,90,0.00,,,0.02,Wunderground v.1.15,2013-07-08 03:50:00,